Pagrindinis puslapis
METAR-TAF:

METAR-TAF

Oro uostai :

Palembangas, Indonezija

platuma: 02-54S, ilguma: 104-42E, Aukštis: 10 m

Dabartinis oras

Ataskaita buvo paskelbta 4 valandos ir 58 minutes, ne 16:00 UTC
Vėjas 5 kt iš Rytų/Pietryčių
Temperatūra 26°C
Drėgmė 89%
Slėgis 1012 hPa
Matomumas 10 km arba daugiau
Mažai debesys ne aukštis 1000 ft

METAR: WIPP 171600Z 11005KT 9999 FEW010 26/24 Q1012 NOSIG

Laikas: 03:58 (20:58 UTC)

Prognozė

Ataskaita buvo paskelbta 3 valandos ir 58 minutes, ne 17:00 UTC
Prognozė galioja nuo 17 metu 18 UTC su 18 metu 18 UTC
Vėjas 8 kt iš Rytų/Pietryčių
Matomumas 10 km arba daugiau
Mažai debesys ne aukštis 1000 ft
Laikinai
nuo 17 metu 22 UTC su 18 metu 01 UTC
Matomumas: 5000 m
migla

TAF: WIPP 171700Z 1718/1818 12008KT 9999 FEW010 TEMPO 1722/1801 5000 HZ

Orai ataskaitas ir orų prognozės (METAR, TAF).

turimą stotys yra geltonos ir raudonos taškus žemėlapyje.

Perkelti pele per norėdami pamatyti stoties vardą.

Tada spustelėkite, norėdami matyti oro stebėjimo ir prognozės.

Norėdami pakeisti žemėlapį: spustelėkite ant žalios mygtukų su juodo kryžiaus žemyn,; žalią mygtuką su brūkšneliu, jei norite nutolinti; arba žalių rodyklių gretimoms žemėlapius.


METAR-TAF: